createdAt,value
2022-10-17T00:00:39.131Z,2.85
2022-10-17T00:03:05.965Z,2.45
2022-10-17T00:05:32.761Z,2.72
2022-10-17T00:07:59.509Z,2.80
2022-10-17T00:10:26.369Z,2.97
2022-10-17T00:12:53.070Z,2.78
2022-10-17T00:15:21.000Z,3.25
2022-10-17T00:17:47.805Z,3.15
2022-10-17T00:20:15.792Z,3.10
2022-10-17T00:22:43.239Z,3.42
2022-10-17T00:25:10.507Z,3.08
2022-10-17T00:27:41.643Z,3.00
2022-10-17T00:30:12.648Z,2.95
2022-10-17T00:32:40.043Z,3.03
2022-10-17T00:35:07.776Z,3.15
2022-10-17T00:37:35.022Z,2.58
2022-10-17T00:40:01.778Z,3.38
2022-10-17T00:42:28.827Z,3.83
2022-10-17T00:45:21.942Z,3.25
2022-10-17T00:48:03.898Z,3.30
2022-10-17T00:50:31.717Z,4.05
2022-10-17T00:53:02.118Z,3.60
2022-10-17T00:55:32.850Z,2.67
2022-10-17T00:58:02.593Z,3.08
2022-10-17T01:00:29.468Z,3.58
2022-10-17T01:02:58.131Z,3.00
2022-10-17T01:05:24.875Z,3.40
2022-10-17T01:07:53.156Z,3.15
2022-10-17T01:10:20.759Z,3.30
2022-10-17T01:12:57.171Z,3.25
2022-10-17T01:15:23.901Z,3.72
2022-10-17T01:18:03.924Z,3.20
2022-10-17T01:20:48.717Z,3.50
2022-10-17T01:23:28.290Z,3.13
2022-10-17T01:26:26.156Z,3.60
2022-10-17T01:28:55.941Z,3.92
2022-10-17T01:31:37.926Z,3.45
2022-10-17T01:34:32.120Z,3.45
2022-10-17T01:37:18.849Z,3.17
2022-10-17T01:39:48.551Z,3.75
2022-10-17T01:42:27.442Z,3.53
2022-10-17T01:45:03.425Z,3.00
2022-10-17T01:47:32.273Z,3.45
2022-10-17T01:52:42.758Z,3.25
2022-10-17T01:55:32.114Z,3.53
2022-10-17T01:58:22.171Z,3.22
2022-10-17T02:00:50.556Z,3.63
2022-10-17T02:03:19.886Z,3.30
2022-10-17T02:05:47.480Z,3.45
2022-10-17T02:08:14.487Z,3.50
2022-10-17T02:11:01.177Z,3.20
2022-10-17T02:13:39.688Z,3.08
2022-10-17T02:16:23.788Z,3.63
2022-10-17T02:19:08.753Z,3.70
2022-10-17T02:22:03.588Z,3.63
2022-10-17T02:24:49.132Z,3.22
2022-10-17T02:27:39.779Z,3.70
2022-10-17T02:30:20.957Z,3.55
2022-10-17T02:33:09.188Z,3.42
2022-10-17T02:35:40.034Z,4.03
2022-10-17T02:38:09.772Z,3.42
2022-10-17T02:40:37.823Z,3.63
2022-10-17T02:43:04.914Z,3.20
2022-10-17T02:45:36.031Z,3.40
2022-10-17T02:48:34.494Z,3.60
2022-10-17T02:51:12.239Z,3.40
2022-10-17T02:54:12.825Z,3.75
2022-10-17T02:56:50.928Z,3.38
2022-10-17T02:59:21.310Z,2.97
2022-10-17T03:01:51.840Z,3.13
2022-10-17T03:04:19.726Z,3.17
2022-10-17T03:06:48.059Z,2.75
2022-10-17T03:09:15.517Z,3.28
2022-10-17T03:11:42.349Z,3.33
2022-10-17T03:14:09.342Z,3.20
2022-10-17T03:16:36.506Z,3.45
2022-10-17T03:19:04.704Z,2.70
2022-10-17T03:21:32.588Z,2.97
2022-10-17T03:23:59.455Z,3.20
2022-10-17T03:26:26.228Z,3.42
2022-10-17T03:28:54.498Z,3.30
2022-10-17T03:31:23.112Z,3.25
2022-10-17T03:33:51.597Z,2.65
2022-10-17T03:36:19.344Z,2.85
2022-10-17T03:38:48.089Z,2.78
2022-10-17T03:41:16.660Z,3.00
2022-10-17T03:43:43.591Z,3.08
2022-10-17T03:46:10.411Z,3.00
2022-10-17T03:48:37.915Z,2.45
2022-10-17T03:51:08.746Z,2.50
2022-10-17T03:53:41.473Z,2.55
2022-10-17T03:56:17.733Z,2.88
2022-10-17T03:58:49.372Z,2.70
2022-10-17T04:01:17.460Z,2.97
2022-10-17T04:03:52.851Z,2.63
2022-10-17T04:06:20.708Z,2.97
2022-10-17T04:08:48.796Z,3.15
2022-10-17T04:11:22.077Z,2.70
2022-10-17T04:13:54.116Z,2.63
2022-10-17T04:16:21.783Z,2.67
2022-10-17T04:18:58.632Z,2.65
2022-10-17T04:21:29.034Z,2.38
2022-10-17T04:24:00.036Z,3.00
2022-10-17T04:26:45.487Z,2.47
2022-10-17T04:29:13.493Z,2.70
2022-10-17T04:31:42.718Z,2.92
2022-10-17T04:34:32.586Z,2.60
2022-10-17T04:36:59.282Z,3.00
2022-10-17T04:39:26.872Z,2.75
2022-10-17T04:41:53.878Z,3.55
2022-10-17T04:44:20.829Z,3.80
2022-10-17T04:46:51.278Z,3.85
2022-10-17T04:49:18.125Z,3.28
2022-10-17T04:51:48.197Z,3.00
2022-10-17T04:54:21.673Z,2.78
2022-10-17T04:56:54.004Z,2.90
2022-10-17T04:59:20.779Z,2.83
2022-10-17T05:01:53.066Z,2.50
2022-10-17T05:04:22.422Z,3.00
2022-10-17T05:06:51.754Z,2.53
2022-10-17T05:09:37.207Z,2.60
2022-10-17T05:12:06.763Z,3.13
2022-10-17T05:14:37.730Z,3.10
2022-10-17T05:17:05.154Z,2.95
2022-10-17T05:19:32.296Z,2.85
2022-10-17T05:21:59.662Z,2.90
2022-10-17T05:24:26.430Z,2.88
2022-10-17T05:26:53.497Z,3.10
2022-10-17T05:29:20.265Z,3.17
2022-10-17T05:31:52.616Z,2.90
2022-10-17T05:34:19.996Z,2.85
2022-10-17T05:36:47.006Z,2.47
2022-10-17T05:39:19.667Z,3.05
2022-10-17T05:41:47.641Z,3.10
2022-10-17T05:44:14.483Z,2.78
2022-10-17T05:46:45.273Z,2.60
2022-10-17T05:49:19.758Z,3.08
2022-10-17T05:51:59.803Z,2.95
2022-10-17T05:54:26.844Z,3.05
2022-10-17T05:56:54.843Z,3.00
2022-10-17T05:59:26.324Z,3.08
2022-10-17T06:02:01.311Z,2.83
2022-10-17T06:04:29.226Z,2.72
2022-10-17T06:06:56.322Z,3.15
2022-10-17T06:09:23.700Z,2.90
2022-10-17T06:11:54.528Z,3.45
2022-10-17T06:14:21.666Z,2.90
2022-10-17T06:19:19.069Z,3.05
2022-10-17T06:21:47.129Z,2.92
2022-10-17T06:24:18.000Z,2.97
2022-10-17T06:26:44.860Z,3.08
2022-10-17T06:29:14.299Z,2.85
2022-10-17T06:31:47.947Z,2.70
2022-10-17T06:34:14.946Z,2.63
2022-10-17T06:36:41.819Z,2.60
2022-10-17T06:39:09.826Z,2.83
2022-10-17T06:41:43.237Z,2.45
2022-10-17T06:44:11.270Z,3.83
2022-10-17T06:47:16.537Z,7.82
2022-10-17T06:49:46.372Z,3.45
2022-10-17T06:52:33.364Z,3.22
2022-10-17T06:55:23.010Z,6.47
2022-10-17T06:58:10.449Z,3.95
2022-10-17T07:00:51.766Z,2.60
2022-10-17T07:03:19.459Z,2.92
2022-10-17T07:05:52.262Z,2.75
2022-10-17T07:08:19.303Z,2.65
2022-10-17T07:10:46.255Z,2.60
2022-10-17T07:13:13.154Z,2.65
2022-10-17T07:15:40.168Z,2.40
2022-10-17T07:18:07.165Z,2.75
2022-10-17T07:20:34.494Z,2.78
2022-10-17T07:23:01.447Z,2.13
2022-10-17T07:25:28.436Z,2.85
2022-10-17T07:27:59.718Z,2.58
2022-10-17T07:30:26.610Z,2.80
2022-10-17T07:33:00.130Z,2.65
2022-10-17T07:35:27.027Z,3.05
2022-10-17T07:37:54.715Z,2.70
2022-10-17T07:40:21.817Z,2.50
2022-10-17T07:42:48.682Z,2.50
2022-10-17T07:45:15.979Z,2.63
2022-10-17T07:47:43.656Z,2.50
2022-10-17T07:50:13.208Z,2.55
2022-10-17T07:52:39.997Z,2.40
2022-10-17T07:55:07.849Z,2.60
2022-10-17T07:57:34.528Z,2.50
2022-10-17T08:00:01.325Z,2.70
2022-10-17T08:02:28.678Z,2.58
2022-10-17T08:04:55.747Z,5.20
2022-10-17T08:07:26.849Z,6.13
2022-10-17T08:09:56.086Z,7.03
2022-10-17T08:12:22.898Z,3.03
2022-10-17T08:14:49.682Z,2.78
2022-10-17T08:17:16.467Z,2.50
2022-10-17T08:19:43.299Z,2.85
2022-10-17T08:22:10.063Z,2.60
2022-10-17T08:24:36.816Z,2.95
2022-10-17T08:27:08.498Z,2.40
2022-10-17T08:29:35.371Z,2.38
2022-10-17T08:32:03.719Z,2.90
2022-10-17T08:34:31.411Z,2.90
2022-10-17T08:36:58.378Z,2.88
2022-10-17T08:39:25.085Z,3.25
2022-10-17T08:42:21.284Z,3.35
2022-10-17T08:44:59.862Z,2.92
2022-10-17T08:47:33.578Z,2.90
2022-10-17T08:50:04.171Z,2.53
2022-10-17T08:52:41.492Z,2.70
2022-10-17T08:55:29.653Z,2.53
2022-10-17T08:57:56.821Z,2.58
2022-10-17T09:00:24.357Z,5.25
2022-10-17T09:03:24.698Z,2.88
2022-10-17T09:06:06.114Z,2.80
2022-10-17T09:08:53.072Z,2.45
2022-10-17T09:11:48.833Z,2.88
2022-10-17T09:14:40.097Z,2.88
2022-10-17T09:17:29.432Z,2.95
2022-10-17T09:20:11.054Z,2.70
2022-10-17T09:22:47.387Z,2.95
2022-10-17T09:25:18.800Z,2.53
2022-10-17T09:28:04.243Z,2.67
2022-10-17T09:30:45.547Z,2.60
2022-10-17T09:33:28.304Z,2.22
2022-10-17T09:36:14.923Z,2.83
2022-10-17T09:38:45.141Z,2.58
2022-10-17T09:44:18.570Z,2.42
2022-10-17T09:47:16.600Z,2.63
2022-10-17T09:49:46.274Z,2.45
2022-10-17T09:52:25.774Z,2.50
2022-10-17T09:55:26.371Z,3.25
2022-10-17T09:57:59.269Z,2.70
2022-10-17T10:00:41.463Z,2.30
2022-10-17T10:03:15.065Z,2.78
2022-10-17T10:05:43.660Z,2.25
2022-10-17T10:08:18.973Z,2.30
2022-10-17T10:10:45.802Z,2.72
2022-10-17T10:13:15.909Z,2.35
2022-10-17T10:15:47.989Z,2.40
2022-10-17T10:18:33.081Z,2.70
2022-10-17T10:21:06.536Z,2.40
2022-10-17T10:23:33.957Z,2.40
2022-10-17T10:26:06.007Z,1.80
2022-10-17T10:28:36.145Z,2.88
2022-10-17T10:31:06.508Z,2.35
2022-10-17T10:33:40.400Z,2.50
2022-10-17T10:36:09.054Z,2.50
2022-10-17T10:38:39.960Z,2.53
2022-10-17T10:41:09.376Z,2.08
2022-10-17T10:43:46.117Z,2.25
2022-10-17T10:46:20.447Z,2.00
2022-10-17T10:49:00.222Z,2.15
2022-10-17T10:51:26.912Z,2.25
2022-10-17T10:54:04.172Z,2.20
2022-10-17T10:56:38.822Z,2.20
2022-10-17T10:59:08.592Z,1.83
2022-10-17T11:01:54.051Z,2.08
2022-10-17T11:04:39.481Z,2.53
2022-10-17T11:07:32.709Z,2.45
2022-10-17T11:10:23.819Z,2.67
2022-10-17T11:13:03.553Z,2.80
2022-10-17T11:15:40.365Z,2.20
2022-10-17T11:18:11.907Z,2.30
2022-10-17T11:20:53.383Z,2.35
2022-10-17T11:23:35.511Z,2.20
2022-10-17T11:26:07.357Z,2.00
2022-10-17T11:28:34.206Z,2.50
2022-10-17T11:31:08.218Z,2.42
2022-10-17T11:33:58.235Z,2.40
2022-10-17T11:36:37.836Z,2.27
2022-10-17T11:39:11.751Z,2.10
2022-10-17T11:41:54.176Z,2.13
2022-10-17T11:44:41.876Z,1.95
2022-10-17T11:47:36.748Z,1.95
2022-10-17T11:53:23.465Z,2.10
2022-10-17T11:55:52.828Z,2.40
2022-10-17T11:58:30.132Z,2.10
2022-10-17T12:01:07.620Z,1.73
2022-10-17T12:03:55.926Z,1.83
2022-10-17T12:06:43.120Z,2.03
2022-10-17T12:09:26.416Z,2.13
2022-10-17T12:12:02.430Z,1.77
2022-10-17T12:14:38.632Z,2.33
2022-10-17T12:17:22.730Z,1.85
2022-10-17T12:19:49.630Z,1.85
2022-10-17T12:22:26.015Z,2.38
2022-10-17T12:25:01.484Z,1.98
2022-10-17T12:27:43.644Z,2.35
2022-10-17T12:30:16.598Z,1.90
2022-10-17T12:33:26.656Z,2.00
2022-10-17T12:36:18.460Z,1.70
2022-10-17T12:38:50.074Z,1.80
2022-10-17T12:41:37.445Z,2.08
2022-10-17T12:44:13.485Z,1.80
2022-10-17T12:46:52.224Z,2.00
2022-10-17T12:49:22.023Z,2.33
2022-10-17T12:52:19.688Z,1.80
2022-10-17T12:55:07.151Z,1.77
2022-10-17T12:58:08.089Z,1.95
2022-10-17T13:00:37.296Z,2.05
2022-10-17T13:03:14.319Z,1.90
2022-10-17T13:05:45.369Z,3.50
2022-10-17T13:08:20.945Z,2.22
2022-10-17T13:10:52.415Z,1.77
2022-10-17T13:13:24.092Z,2.08
2022-10-17T13:15:53.357Z,2.28
2022-10-17T13:18:23.555Z,1.90
2022-10-17T13:21:26.088Z,2.10
2022-10-17T13:23:54.295Z,1.90
2022-10-17T13:26:25.927Z,2.25
2022-10-17T13:29:23.403Z,2.10
2022-10-17T13:32:01.852Z,1.92
2022-10-17T13:34:29.194Z,1.92
2022-10-17T13:37:06.151Z,1.80
2022-10-17T13:40:07.091Z,2.10
2022-10-17T13:42:40.420Z,1.77
2022-10-17T13:45:17.269Z,1.75
2022-10-17T13:47:44.606Z,1.90
2022-10-17T13:50:43.559Z,2.10
2022-10-17T13:53:25.824Z,1.85
2022-10-17T13:56:29.856Z,2.00
2022-10-17T13:59:01.321Z,1.77
2022-10-17T14:01:29.445Z,2.58
2022-10-17T14:04:08.389Z,2.17
2022-10-17T14:06:46.183Z,2.20
2022-10-17T14:09:28.782Z,1.80
2022-10-17T14:12:10.570Z,1.88
2022-10-17T14:15:05.227Z,2.00
2022-10-17T14:17:28.563Z,2.10
2022-10-17T14:23:10.537Z,2.00
2022-10-17T14:25:40.050Z,2.42
2022-10-17T14:28:13.852Z,2.10
2022-10-17T14:30:56.730Z,2.20
2022-10-17T14:33:29.876Z,1.83
2022-10-17T14:35:59.612Z,1.85
2022-10-17T14:38:26.896Z,2.10
2022-10-17T14:41:41.386Z,1.92
2022-10-17T14:44:06.594Z,1.90
2022-10-17T14:46:35.727Z,1.85
2022-10-17T14:49:14.159Z,1.75
2022-10-17T14:51:50.665Z,1.60
2022-10-17T14:54:27.386Z,2.15
2022-10-17T14:56:54.923Z,2.05
2022-10-17T14:59:52.378Z,1.90
2022-10-17T15:02:13.519Z,1.70
2022-10-17T15:04:40.505Z,1.90
2022-10-17T15:07:07.302Z,1.80
2022-10-17T15:09:34.026Z,2.05
2022-10-17T15:12:02.646Z,1.90
2022-10-17T15:14:29.345Z,1.90
2022-10-17T15:16:56.087Z,1.90
2022-10-17T15:19:22.831Z,2.05
2022-10-17T15:21:49.515Z,1.55
2022-10-17T15:24:16.229Z,1.88
2022-10-17T15:26:43.315Z,1.95
2022-10-17T15:29:15.808Z,1.70
2022-10-17T15:31:42.603Z,1.80
2022-10-17T15:34:09.279Z,1.95
2022-10-17T15:36:41.182Z,2.08
2022-10-17T15:39:09.855Z,1.98
2022-10-17T15:41:36.517Z,2.08
2022-10-17T15:44:03.609Z,2.13
2022-10-17T15:46:34.008Z,2.20
2022-10-17T15:49:11.169Z,2.40
2022-10-17T15:51:38.358Z,2.03
2022-10-17T15:54:06.301Z,2.03
2022-10-17T15:56:42.190Z,2.47
2022-10-17T15:59:19.001Z,1.85
2022-10-17T16:01:45.895Z,1.92
2022-10-17T16:04:15.405Z,2.00
2022-10-17T16:06:45.198Z,2.20
2022-10-17T16:09:11.901Z,2.00
2022-10-17T16:11:41.630Z,2.78
2022-10-17T16:14:13.811Z,2.13
2022-10-17T16:16:41.118Z,2.00
2022-10-17T16:19:08.236Z,2.03
2022-10-17T16:21:37.827Z,2.20
2022-10-17T16:24:05.456Z,1.90
2022-10-17T16:26:32.239Z,2.40
2022-10-17T16:29:02.577Z,1.90
2022-10-17T16:31:33.061Z,1.90
2022-10-17T16:34:01.632Z,2.03
2022-10-17T16:36:29.288Z,1.85
2022-10-17T16:38:56.060Z,2.08
2022-10-17T16:41:25.685Z,2.17
2022-10-17T16:43:55.068Z,2.13
2022-10-17T16:46:23.144Z,2.10
2022-10-17T16:48:50.437Z,2.08
2022-10-17T16:51:19.166Z,2.30
2022-10-17T16:53:47.347Z,2.83
2022-10-17T16:56:17.864Z,2.90
2022-10-17T16:58:45.324Z,2.03
2022-10-17T17:01:17.993Z,2.33
2022-10-17T17:03:46.574Z,2.72
2022-10-17T17:06:16.134Z,2.55
2022-10-17T17:08:43.617Z,2.47
2022-10-17T17:11:12.924Z,2.22
2022-10-17T17:13:41.042Z,2.15
2022-10-17T17:16:13.775Z,2.03
2022-10-17T17:18:41.396Z,2.22
2022-10-17T17:21:09.317Z,2.05
2022-10-17T17:23:39.752Z,2.20
2022-10-17T17:26:16.103Z,2.10
2022-10-17T17:28:43.829Z,2.10
2022-10-17T17:31:13.129Z,2.63
2022-10-17T17:33:40.824Z,2.40
2022-10-17T17:36:08.823Z,2.10
2022-10-17T17:38:36.718Z,2.15
2022-10-17T17:41:04.462Z,2.05
2022-10-17T17:43:31.351Z,2.13
2022-10-17T17:46:01.627Z,2.17
2022-10-17T17:48:28.668Z,2.55
2022-10-17T17:50:55.488Z,2.35
2022-10-17T17:53:22.581Z,2.28
2022-10-17T17:56:03.635Z,2.17
2022-10-17T17:58:30.422Z,2.40
2022-10-17T18:00:57.727Z,2.60
2022-10-17T18:03:25.153Z,2.40
2022-10-17T18:05:52.199Z,2.80
2022-10-17T18:08:18.970Z,2.35
2022-10-17T18:10:56.455Z,2.40
2022-10-17T18:13:23.160Z,2.33
2022-10-17T18:15:51.828Z,2.35
2022-10-17T18:18:19.057Z,2.55
2022-10-17T18:20:45.821Z,2.42
2022-10-17T18:23:12.751Z,2.83
2022-10-17T18:25:39.461Z,2.30
2022-10-17T18:28:06.315Z,2.50
2022-10-17T18:30:35.984Z,2.20
2022-10-17T18:33:02.830Z,2.90
2022-10-17T18:35:29.519Z,2.47
2022-10-17T18:37:57.004Z,2.67
2022-10-17T18:40:23.861Z,2.70
2022-10-17T18:42:50.594Z,2.53
2022-10-17T18:45:17.441Z,2.72
2022-10-17T18:47:47.214Z,2.78
2022-10-17T18:50:14.688Z,3.13
2022-10-17T18:52:41.543Z,2.55
2022-10-17T18:55:08.830Z,2.65
2022-10-17T18:57:35.722Z,2.95
2022-10-17T19:00:02.643Z,2.60
2022-10-17T19:02:31.312Z,2.85
2022-10-17T19:05:00.945Z,2.40
2022-10-17T19:07:27.855Z,2.85
2022-10-17T19:09:54.829Z,2.80
2022-10-17T19:12:21.635Z,2.67
2022-10-17T19:14:50.693Z,2.40
2022-10-17T19:17:17.419Z,2.83
2022-10-17T19:19:44.145Z,2.70
2022-10-17T19:22:11.230Z,2.90
2022-10-17T19:24:38.004Z,2.75
2022-10-17T19:27:06.806Z,3.05
2022-10-17T19:29:33.585Z,2.80
2022-10-17T19:32:00.842Z,2.75
2022-10-17T19:34:27.832Z,2.60
2022-10-17T19:36:55.725Z,2.97
2022-10-17T19:39:23.842Z,3.40
2022-10-17T19:41:50.791Z,3.03
2022-10-17T19:44:18.294Z,2.67
2022-10-17T19:46:46.678Z,2.83
2022-10-17T19:49:13.918Z,3.00
2022-10-17T19:51:41.211Z,3.42
2022-10-17T19:54:08.207Z,2.80
2022-10-17T19:56:38.495Z,3.10
2022-10-17T19:59:06.465Z,3.13
2022-10-17T20:01:38.563Z,2.78
2022-10-17T20:04:06.396Z,2.95
2022-10-17T20:06:34.218Z,3.35
2022-10-17T20:09:01.114Z,2.97
2022-10-17T20:11:28.569Z,3.13
2022-10-17T20:13:56.514Z,2.95
2022-10-17T20:16:25.551Z,2.90
2022-10-17T20:18:54.683Z,2.63
2022-10-17T20:21:27.234Z,3.00
2022-10-17T20:23:54.731Z,2.33
2022-10-17T20:26:37.665Z,3.00
2022-10-17T20:29:11.577Z,5.35
2022-10-17T20:31:39.433Z,3.60
2022-10-17T20:34:06.289Z,2.53
2022-10-17T20:36:36.792Z,2.97
2022-10-17T20:39:04.561Z,2.53
2022-10-17T20:41:31.289Z,3.17
2022-10-17T20:43:58.010Z,3.08
2022-10-17T20:46:48.470Z,2.85
2022-10-17T20:49:15.333Z,2.60
2022-10-17T20:51:42.290Z,2.72
2022-10-17T20:54:09.549Z,2.95
2022-10-17T20:56:36.371Z,3.38
2022-10-17T20:59:05.811Z,3.33
2022-10-17T21:01:34.320Z,2.97
2022-10-17T21:04:21.244Z,2.72
2022-10-17T21:06:48.852Z,2.75
2022-10-17T21:09:15.796Z,2.65
2022-10-17T21:11:43.155Z,2.67
2022-10-17T21:14:11.615Z,2.70
2022-10-17T21:16:39.554Z,2.55
2022-10-17T21:19:06.459Z,2.70
2022-10-17T21:21:35.749Z,3.15
2022-10-17T21:24:05.449Z,2.60
2022-10-17T21:26:33.994Z,3.00
2022-10-17T21:29:05.758Z,2.75
2022-10-17T21:31:37.711Z,2.53
2022-10-17T21:34:17.531Z,2.42
2022-10-17T21:36:45.004Z,3.42
2022-10-17T21:39:12.975Z,2.63
2022-10-17T21:41:40.240Z,2.78
2022-10-17T21:44:12.135Z,2.92
2022-10-17T21:46:39.019Z,2.75
2022-10-17T21:49:06.369Z,2.70
2022-10-17T21:51:33.191Z,2.50
2022-10-17T21:53:59.910Z,3.08
2022-10-17T21:56:28.882Z,3.33
2022-10-17T21:58:56.563Z,3.90
2022-10-17T22:01:28.594Z,2.88
2022-10-17T22:04:01.659Z,3.40
2022-10-17T22:06:39.843Z,4.07
2022-10-17T22:09:12.497Z,2.83
2022-10-17T22:11:39.502Z,2.58
2022-10-17T22:14:11.314Z,3.20
2022-10-17T22:16:38.763Z,2.75
2022-10-17T22:19:06.857Z,2.88
2022-10-17T22:21:35.641Z,3.30
2022-10-17T22:24:06.511Z,3.40
2022-10-17T22:26:35.581Z,2.80
2022-10-17T22:29:03.660Z,3.00
2022-10-17T22:31:30.537Z,3.47
2022-10-17T22:33:57.335Z,3.00
2022-10-17T22:36:24.096Z,2.88
2022-10-17T22:38:50.810Z,3.15
2022-10-17T22:41:17.798Z,2.67
2022-10-17T22:43:44.543Z,2.88
2022-10-17T22:46:13.447Z,2.85
2022-10-17T22:48:40.730Z,2.80
2022-10-17T22:51:07.726Z,2.88
2022-10-17T22:53:35.203Z,2.88
2022-10-17T22:56:05.276Z,3.47
2022-10-17T22:58:33.921Z,3.35
2022-10-17T23:01:00.923Z,4.07
2022-10-17T23:03:29.279Z,2.75
2022-10-17T23:05:56.687Z,3.20
2022-10-17T23:08:24.166Z,3.15
2022-10-17T23:10:50.961Z,2.80
2022-10-17T23:13:18.688Z,3.00
2022-10-17T23:15:45.801Z,2.83
2022-10-17T23:18:12.705Z,3.08
2022-10-17T23:20:39.476Z,2.67
2022-10-17T23:23:06.285Z,3.75
2022-10-17T23:25:34.715Z,3.03
2022-10-17T23:28:02.182Z,2.78
2022-10-17T23:30:29.231Z,3.10
2022-10-17T23:32:55.922Z,2.85
2022-10-17T23:35:22.941Z,3.67
2022-10-17T23:37:49.733Z,2.97
2022-10-17T23:40:16.570Z,3.17
2022-10-17T23:42:43.340Z,3.60
2022-10-17T23:45:11.438Z,3.72
2022-10-17T23:47:38.348Z,3.67
2022-10-17T23:50:06.086Z,3.80
2022-10-17T23:52:33.026Z,3.70
2022-10-17T23:54:59.771Z,3.90
2022-10-17T23:57:26.498Z,3.47
2022-10-17T23:59:53.344Z,3.33
